createdAt,value
2022-12-25T00:01:32.067Z,98922.09
2022-12-25T00:03:59.245Z,98925.66
2022-12-25T00:06:26.430Z,98921.56
2022-12-25T00:08:53.191Z,98931.72
2022-12-25T00:11:20.765Z,98938.44
2022-12-25T00:13:48.546Z,98924.19
2022-12-25T00:16:20.787Z,98932.72
2022-12-25T00:18:48.424Z,98932.72
2022-12-25T00:21:15.662Z,98919.19
2022-12-25T00:23:42.753Z,98922.34
2022-12-25T00:26:12.863Z,98919.72
2022-12-25T00:28:39.847Z,98925.66
2022-12-25T00:31:09.543Z,98921.34
2022-12-25T00:33:40.416Z,98913.91
2022-12-25T00:36:08.749Z,98916.47
2022-12-25T00:38:37.020Z,98913.56
2022-12-25T00:41:09.211Z,98913.41
2022-12-25T00:43:36.522Z,98914.38
2022-12-25T00:46:05.716Z,98931.28
2022-12-25T00:48:33.436Z,98918.00
2022-12-25T00:51:02.583Z,98926.50
2022-12-25T00:53:29.688Z,98929.22
2022-12-25T00:55:59.714Z,98934.13
2022-12-25T00:58:29.277Z,98937.66
2022-12-25T01:00:56.454Z,98941.16
2022-12-25T01:03:23.367Z,98941.41
2022-12-25T01:06:01.998Z,98943.22
2022-12-25T01:08:34.264Z,98939.13
2022-12-25T01:11:04.315Z,98950.22
2022-12-25T01:13:31.890Z,98946.06
2022-12-25T01:15:58.733Z,98947.69
2022-12-25T01:18:25.683Z,98948.41
2022-12-25T01:20:52.417Z,98946.81
2022-12-25T01:23:19.243Z,98949.50
2022-12-25T01:25:45.947Z,98950.38
2022-12-25T01:28:12.742Z,98949.38
2022-12-25T01:30:40.625Z,98946.81
2022-12-25T01:33:07.374Z,98959.34
2022-12-25T01:35:34.220Z,98958.56
2022-12-25T01:38:01.103Z,98967.72
2022-12-25T01:40:27.869Z,98965.00
2022-12-25T01:42:54.566Z,98965.91
2022-12-25T01:45:33.316Z,98965.81
2022-12-25T01:48:04.055Z,98970.03
2022-12-25T01:50:30.991Z,98960.59
2022-12-25T01:52:58.183Z,98976.75
2022-12-25T01:55:25.525Z,98970.91
2022-12-25T01:57:52.369Z,98971.84
2022-12-25T02:00:19.449Z,98975.34
2022-12-25T02:02:46.596Z,98970.19
2022-12-25T02:05:23.861Z,98969.19
2022-12-25T02:07:51.378Z,98973.53
2022-12-25T02:10:18.435Z,98975.22
2022-12-25T02:12:46.421Z,98980.31
2022-12-25T02:15:18.713Z,98971.09
2022-12-25T02:17:50.140Z,98975.50
2022-12-25T02:20:33.265Z,98976.25
2022-12-25T02:23:21.365Z,98968.38
2022-12-25T02:25:54.562Z,98972.66
2022-12-25T02:28:21.262Z,98972.53
2022-12-25T02:30:57.149Z,98981.13
2022-12-25T02:33:54.639Z,98971.97
2022-12-25T02:36:26.681Z,98972.06
2022-12-25T02:39:18.502Z,98971.78
2022-12-25T02:41:47.528Z,98975.22
2022-12-25T02:44:38.886Z,98971.13
2022-12-25T02:47:28.106Z,98975.34
2022-12-25T02:50:15.660Z,98968.59
2022-12-25T02:53:03.530Z,98959.97
2022-12-25T02:55:57.616Z,98971.16
2022-12-25T02:58:46.463Z,98968.53
2022-12-25T03:01:39.451Z,98969.63
2022-12-25T03:04:31.005Z,98968.59
2022-12-25T03:07:06.274Z,98963.72
2022-12-25T03:09:58.063Z,98968.78
2022-12-25T03:12:40.371Z,98982.19
2022-12-25T03:15:28.030Z,98973.72
2022-12-25T03:17:57.393Z,98977.88
2022-12-25T03:20:42.627Z,98976.25
2022-12-25T03:23:30.915Z,98975.97
2022-12-25T03:26:16.172Z,98980.97
2022-12-25T03:28:42.990Z,98977.72
2022-12-25T03:31:42.272Z,98970.97
2022-12-25T03:34:58.882Z,98970.19
2022-12-25T03:38:16.605Z,98973.75
2022-12-25T03:41:24.719Z,98967.16
2022-12-25T03:44:33.265Z,98978.22
2022-12-25T03:47:26.574Z,98979.97
2022-12-25T03:50:34.955Z,98983.44
2022-12-25T03:53:24.712Z,98976.53
2022-12-25T03:56:11.665Z,98979.84
2022-12-25T03:58:56.945Z,98977.28
2022-12-25T04:01:42.235Z,98973.00
2022-12-25T04:04:27.583Z,98978.00
2022-12-25T04:07:12.747Z,98976.97
2022-12-25T04:09:58.135Z,98982.06
2022-12-25T04:12:43.435Z,98981.44
2022-12-25T04:15:29.496Z,98983.94
2022-12-25T04:18:15.061Z,98984.84
2022-12-25T04:21:20.110Z,98988.38
2022-12-25T04:24:05.427Z,98989.25
2022-12-25T04:26:50.806Z,98991.03
2022-12-25T04:29:35.699Z,98990.19
2022-12-25T04:32:21.188Z,98989.41
2022-12-25T04:35:06.461Z,98989.47
2022-12-25T04:37:33.324Z,98990.41
2022-12-25T04:40:00.101Z,98988.66
2022-12-25T04:42:26.854Z,98986.09
2022-12-25T04:44:53.568Z,98992.91
2022-12-25T04:47:20.386Z,98991.13
2022-12-25T04:49:47.090Z,98985.19
2022-12-25T04:52:14.049Z,98981.84
2022-12-25T04:54:40.723Z,98988.56
2022-12-25T04:57:07.680Z,98989.19
2022-12-25T04:59:34.493Z,98989.94
2022-12-25T05:02:01.572Z,98983.09
2022-12-25T05:04:28.380Z,98984.78
2022-12-25T05:06:55.161Z,98987.44
2022-12-25T05:09:21.857Z,98990.00
2022-12-25T05:11:48.624Z,98992.69
2022-12-25T05:14:15.785Z,98994.34
2022-12-25T05:16:42.559Z,98989.25
2022-12-25T05:19:09.903Z,98989.94
2022-12-25T05:21:36.662Z,98988.38
2022-12-25T05:24:03.408Z,98994.31
2022-12-25T05:26:30.275Z,98997.72
2022-12-25T05:28:57.128Z,98996.16
2022-12-25T05:31:23.929Z,98994.41
2022-12-25T05:33:52.657Z,98999.63
2022-12-25T05:36:20.220Z,98995.28
2022-12-25T05:38:46.922Z,99003.75
2022-12-25T05:41:13.666Z,98997.91
2022-12-25T05:43:40.324Z,99002.06
2022-12-25T05:46:09.379Z,98999.56
2022-12-25T05:48:38.160Z,99013.22
2022-12-25T05:51:11.689Z,99016.66
2022-12-25T05:53:39.240Z,99015.53
2022-12-25T05:56:07.489Z,99016.25
2022-12-25T05:58:36.546Z,99017.22
2022-12-25T06:01:03.730Z,99012.25
2022-12-25T06:03:30.668Z,99020.88
2022-12-25T06:05:57.613Z,99015.81
2022-12-25T06:08:24.341Z,99022.72
2022-12-25T06:10:51.010Z,99018.53
2022-12-25T06:13:17.847Z,99016.75
2022-12-25T06:15:44.592Z,99013.59
2022-12-25T06:18:11.433Z,99020.38
2022-12-25T06:20:40.887Z,99026.28
2022-12-25T06:23:07.762Z,99030.41
2022-12-25T06:25:34.367Z,99031.19
2022-12-25T06:28:01.146Z,99033.81
2022-12-25T06:30:27.849Z,99043.84
2022-12-25T06:32:54.536Z,99051.41
2022-12-25T06:35:21.210Z,99048.88
2022-12-25T06:37:47.877Z,99051.38
2022-12-25T06:40:14.572Z,99050.59
2022-12-25T06:42:41.328Z,99060.97
2022-12-25T06:45:08.471Z,99056.69
2022-12-25T06:47:36.482Z,99050.66
2022-12-25T06:50:04.361Z,99054.06
2022-12-25T06:52:32.634Z,99054.28
2022-12-25T06:54:59.307Z,99053.41
2022-12-25T06:57:26.125Z,99061.06
2022-12-25T06:59:55.395Z,99059.22
2022-12-25T07:02:24.472Z,99063.31
2022-12-25T07:04:52.420Z,99067.38
2022-12-25T07:07:19.395Z,99068.53
2022-12-25T07:09:46.086Z,99072.88
2022-12-25T07:12:22.010Z,99074.34
2022-12-25T07:14:50.142Z,99071.13
2022-12-25T07:17:17.344Z,99078.78
2022-12-25T07:19:45.378Z,99085.59
2022-12-25T07:22:13.198Z,99092.44
2022-12-25T07:24:40.019Z,99091.56
2022-12-25T07:27:06.982Z,99089.06
2022-12-25T07:29:34.091Z,99088.06
2022-12-25T07:32:00.868Z,99094.75
2022-12-25T07:34:27.657Z,99104.91
2022-12-25T07:36:55.248Z,99100.69
2022-12-25T07:39:22.172Z,99108.41
2022-12-25T07:41:48.970Z,99095.09
2022-12-25T07:44:16.148Z,99103.72
2022-12-25T07:46:43.304Z,99106.25
2022-12-25T07:49:11.145Z,99107.09
2022-12-25T07:51:38.178Z,99109.56
2022-12-25T07:54:05.028Z,99111.19
2022-12-25T07:56:31.956Z,99101.91
2022-12-25T07:58:58.744Z,99105.03
2022-12-25T08:01:28.718Z,99113.47
2022-12-25T08:04:01.063Z,99111.72
2022-12-25T08:06:33.111Z,99112.53
2022-12-25T08:09:12.019Z,99111.25
2022-12-25T08:11:39.956Z,99122.28
2022-12-25T08:14:08.403Z,99129.88
2022-12-25T08:16:35.856Z,99135.91
2022-12-25T08:19:02.706Z,99139.34
2022-12-25T08:21:29.463Z,99147.00
2022-12-25T08:23:56.436Z,99138.38
2022-12-25T08:26:23.819Z,99145.16
2022-12-25T08:28:51.369Z,99147.00
2022-12-25T08:31:19.993Z,99155.56
2022-12-25T08:33:48.370Z,99154.78
2022-12-25T08:36:16.179Z,99153.69
2022-12-25T08:38:43.385Z,99156.19
2022-12-25T08:41:15.553Z,99151.97
2022-12-25T08:43:42.815Z,99156.06
2022-12-25T08:46:09.939Z,99159.56
2022-12-25T08:48:37.244Z,99159.31
2022-12-25T08:51:04.815Z,99166.19
2022-12-25T08:53:31.607Z,99170.41
2022-12-25T08:56:00.283Z,99165.75
2022-12-25T08:58:28.619Z,99169.47
2022-12-25T09:00:56.298Z,99167.69
2022-12-25T09:03:23.910Z,99174.38
2022-12-25T09:05:51.763Z,99171.88
2022-12-25T09:08:19.752Z,99177.09
2022-12-25T09:10:46.420Z,99175.41
2022-12-25T09:13:14.124Z,99176.88
2022-12-25T09:15:41.191Z,99193.81
2022-12-25T09:18:07.962Z,99186.13
2022-12-25T09:20:34.654Z,99188.69
2022-12-25T09:23:01.536Z,99191.22
2022-12-25T09:25:28.512Z,99205.44
2022-12-25T09:27:58.095Z,99203.84
2022-12-25T09:30:24.817Z,99205.69
2022-12-25T09:32:51.641Z,99204.78
2022-12-25T09:35:19.054Z,99200.41
2022-12-25T09:37:45.999Z,99200.41
2022-12-25T09:40:18.577Z,99199.56
2022-12-25T09:42:45.977Z,99202.91
2022-12-25T09:45:24.463Z,99192.00
2022-12-25T09:47:55.268Z,99203.75
2022-12-25T09:50:50.546Z,99198.38
2022-12-25T09:53:26.140Z,99202.72
2022-12-25T09:56:05.716Z,99200.31
2022-12-25T09:58:34.249Z,99202.13
2022-12-25T10:01:16.500Z,99205.56
2022-12-25T10:04:05.182Z,99208.16
2022-12-25T10:06:39.429Z,99201.41
2022-12-25T10:09:41.725Z,99202.06
2022-12-25T10:12:37.957Z,99207.19
2022-12-25T10:15:19.027Z,99205.56
2022-12-25T10:18:07.270Z,99204.63
2022-12-25T10:20:42.822Z,99209.72
2022-12-25T10:23:18.196Z,99214.06
2022-12-25T10:25:46.639Z,99212.25
2022-12-25T10:28:19.599Z,99200.50
2022-12-25T10:30:46.491Z,99213.09
2022-12-25T10:33:17.446Z,99208.97
2022-12-25T10:35:45.153Z,99203.00
2022-12-25T10:38:17.388Z,99213.31
2022-12-25T10:41:03.693Z,99207.38
2022-12-25T10:43:42.288Z,99199.72
2022-12-25T10:46:14.456Z,99194.72
2022-12-25T10:49:02.993Z,99196.97
2022-12-25T10:51:38.777Z,99202.78
2022-12-25T10:54:37.888Z,99201.78
2022-12-25T10:57:10.587Z,99210.22
2022-12-25T10:59:47.788Z,99198.38
2022-12-25T11:02:17.344Z,99195.81
2022-12-25T11:04:44.489Z,99189.66
2022-12-25T11:07:25.932Z,99188.69
2022-12-25T11:09:55.407Z,99183.28
2022-12-25T11:12:36.103Z,99184.06
2022-12-25T11:15:27.511Z,99183.13
2022-12-25T11:17:54.308Z,99191.59
2022-12-25T11:20:22.384Z,99177.97
2022-12-25T11:22:50.335Z,99162.47
2022-12-25T11:25:25.681Z,99160.69
2022-12-25T11:28:01.270Z,99158.13
2022-12-25T11:30:30.379Z,99165.84
2022-12-25T11:33:07.876Z,99152.28
2022-12-25T11:35:50.452Z,99164.13
2022-12-25T11:38:17.338Z,99153.06
2022-12-25T11:40:52.917Z,99149.72
2022-12-25T11:43:22.228Z,99150.69
2022-12-25T11:45:54.788Z,99140.50
2022-12-25T11:48:34.031Z,99137.94
2022-12-25T11:51:04.891Z,99137.84
2022-12-25T11:54:00.670Z,99137.84
2022-12-25T11:56:31.102Z,99130.16
2022-12-25T11:59:14.960Z,99130.28
2022-12-25T12:01:55.091Z,99129.22
2022-12-25T12:04:31.765Z,99129.88
2022-12-25T12:07:25.773Z,99122.91
2022-12-25T12:10:04.744Z,99113.38
2022-12-25T12:12:48.822Z,99115.06
2022-12-25T12:15:18.859Z,99102.25
2022-12-25T12:17:45.661Z,99092.97
2022-12-25T12:20:12.599Z,99092.81
2022-12-25T12:22:39.940Z,99083.41
2022-12-25T12:25:07.547Z,99093.34
2022-12-25T12:27:37.601Z,99094.03
2022-12-25T12:30:06.380Z,99093.16
2022-12-25T12:32:36.108Z,99083.56
2022-12-25T12:35:28.370Z,99087.56
2022-12-25T12:38:03.956Z,99090.19
2022-12-25T12:40:33.782Z,99090.03
2022-12-25T12:43:01.619Z,99101.72
2022-12-25T12:46:00.579Z,99090.63
2022-12-25T12:48:29.342Z,99092.28
2022-12-25T12:51:07.781Z,99087.13
2022-12-25T12:53:35.187Z,99095.34
2022-12-25T12:56:14.753Z,99099.59
2022-12-25T12:58:48.314Z,99090.22
2022-12-25T13:01:27.783Z,99093.56
2022-12-25T13:04:16.331Z,99093.66
2022-12-25T13:06:58.882Z,99091.97
2022-12-25T13:09:44.330Z,99095.47
2022-12-25T13:12:13.151Z,99098.97
2022-12-25T13:14:45.382Z,99098.03
2022-12-25T13:17:17.581Z,99109.03
2022-12-25T13:19:44.951Z,99106.72
2022-12-25T13:22:30.133Z,99111.72
2022-12-25T13:24:59.745Z,99114.09
2022-12-25T13:27:29.584Z,99114.22
2022-12-25T13:29:57.351Z,99115.94
2022-12-25T13:32:25.359Z,99111.78
2022-12-25T13:34:53.323Z,99118.44
2022-12-25T13:37:23.474Z,99109.34
2022-12-25T13:39:56.554Z,99121.72
2022-12-25T13:42:36.313Z,99112.44
2022-12-25T13:45:21.173Z,99123.63
2022-12-25T13:47:54.749Z,99117.91
2022-12-25T13:50:28.801Z,99116.13
2022-12-25T13:52:57.432Z,99119.56
2022-12-25T13:55:29.444Z,99121.25
2022-12-25T13:58:02.609Z,99123.00
2022-12-25T14:00:36.226Z,99124.81
2022-12-25T14:03:05.140Z,99125.69
2022-12-25T14:05:42.211Z,99128.19
2022-12-25T14:08:21.017Z,99128.44
2022-12-25T14:10:50.612Z,99135.13
2022-12-25T14:13:19.787Z,99139.50
2022-12-25T14:15:48.077Z,99144.59
2022-12-25T14:18:16.909Z,99123.44
2022-12-25T14:21:11.969Z,99123.41
2022-12-25T14:23:41.735Z,99140.38
2022-12-25T14:26:18.781Z,99137.03
2022-12-25T14:28:52.294Z,99142.78
2022-12-25T14:31:21.032Z,99152.91
2022-12-25T14:33:49.350Z,99136.88
2022-12-25T14:36:16.352Z,99141.16
2022-12-25T14:38:44.278Z,99158.16
2022-12-25T14:41:33.710Z,99164.25
2022-12-25T14:44:02.943Z,99160.91
2022-12-25T14:46:32.020Z,99162.75
2022-12-25T14:49:04.343Z,99160.19
2022-12-25T14:51:33.024Z,99162.69
2022-12-25T14:54:04.107Z,99150.00
2022-12-25T14:56:39.291Z,99162.66
2022-12-25T14:59:09.663Z,99155.84
2022-12-25T15:01:39.996Z,99145.44
2022-12-25T15:04:09.441Z,99141.06
2022-12-25T15:06:40.652Z,99146.09
2022-12-25T15:09:17.483Z,99130.13
2022-12-25T15:11:48.188Z,99132.53
2022-12-25T15:14:15.060Z,99132.53
2022-12-25T15:16:45.654Z,99131.81
2022-12-25T15:19:24.926Z,99131.81
2022-12-25T15:21:52.754Z,99130.13
2022-12-25T15:24:19.611Z,99121.81
2022-12-25T15:26:46.463Z,99134.44
2022-12-25T15:29:13.242Z,99112.72
2022-12-25T15:31:40.917Z,99143.66
2022-12-25T15:34:18.047Z,99133.81
2022-12-25T15:36:45.103Z,99138.88
2022-12-25T15:39:11.862Z,99149.09
2022-12-25T15:41:58.134Z,99155.13
2022-12-25T15:44:25.426Z,99158.53
2022-12-25T15:46:52.476Z,99151.59
2022-12-25T15:49:22.883Z,99149.16
2022-12-25T15:51:49.984Z,99149.16
2022-12-25T15:54:17.168Z,99143.34
2022-12-25T15:56:58.650Z,99150.09
2022-12-25T15:59:28.431Z,99148.53
2022-12-25T16:01:58.170Z,99152.44
2022-12-25T16:04:26.596Z,99150.00
2022-12-25T16:06:53.770Z,99135.47
2022-12-25T16:09:21.253Z,99147.00
2022-12-25T16:11:49.011Z,99149.56
2022-12-25T16:14:15.986Z,99155.50
2022-12-25T16:16:42.710Z,99161.38
2022-12-25T16:19:09.466Z,99155.44
2022-12-25T16:21:45.073Z,99156.19
2022-12-25T16:24:12.837Z,99166.38
2022-12-25T16:26:39.798Z,99163.13
2022-12-25T16:29:07.947Z,99162.25
2022-12-25T16:31:38.669Z,99152.88
2022-12-25T16:34:06.756Z,99154.06
2022-12-25T16:36:35.614Z,99164.22
2022-12-25T16:39:04.072Z,99169.34
2022-12-25T16:41:30.813Z,99175.34
2022-12-25T16:43:57.489Z,99172.72
2022-12-25T16:46:24.289Z,99171.91
2022-12-25T16:48:51.017Z,99176.16
2022-12-25T16:51:20.896Z,99178.06
2022-12-25T16:53:47.950Z,99178.78
2022-12-25T16:56:17.087Z,99175.41
2022-12-25T16:58:46.621Z,99177.66
2022-12-25T17:01:16.111Z,99185.97
2022-12-25T17:03:43.221Z,99183.38
2022-12-25T17:06:22.996Z,99186.97
2022-12-25T17:08:51.927Z,99192.09
2022-12-25T17:11:23.488Z,99189.72
2022-12-25T17:13:50.710Z,99191.44
2022-12-25T17:16:26.181Z,99194.59
2022-12-25T17:18:54.134Z,99203.06
2022-12-25T17:21:21.280Z,99203.13
2022-12-25T17:23:48.036Z,99189.72
2022-12-25T17:26:14.567Z,99199.94
2022-12-25T17:28:41.386Z,99189.97
2022-12-25T17:31:11.019Z,99201.72
2022-12-25T17:33:39.502Z,99197.50
2022-12-25T17:36:10.295Z,99200.81
2022-12-25T17:38:38.108Z,99194.13
2022-12-25T17:41:08.821Z,99194.94
2022-12-25T17:43:44.339Z,99190.50
2022-12-25T17:46:21.520Z,99188.78
2022-12-25T17:48:50.067Z,99199.16
2022-12-25T17:51:21.360Z,99206.09
2022-12-25T17:53:52.274Z,99193.19
2022-12-25T17:56:21.710Z,99190.59
2022-12-25T17:58:54.819Z,99197.38
2022-12-25T18:01:23.511Z,99208.72
2022-12-25T18:03:51.014Z,99207.94
2022-12-25T18:06:22.225Z,99214.75
2022-12-25T18:08:49.693Z,99207.94
2022-12-25T18:11:20.200Z,99210.53
2022-12-25T18:13:49.938Z,99201.09
2022-12-25T18:16:17.749Z,99219.72
2022-12-25T18:18:51.495Z,99221.50
2022-12-25T18:21:19.195Z,99207.16
2022-12-25T18:23:46.473Z,99207.91
2022-12-25T18:26:13.744Z,99207.97
2022-12-25T18:28:42.376Z,99219.88
2022-12-25T18:31:16.959Z,99220.88
2022-12-25T18:33:44.752Z,99217.59
2022-12-25T18:36:16.386Z,99232.00
2022-12-25T18:38:43.450Z,99219.16
2022-12-25T18:41:11.105Z,99235.97
2022-12-25T18:43:53.462Z,99234.53
2022-12-25T18:46:26.419Z,99241.28
2022-12-25T18:48:56.961Z,99234.56
2022-12-25T18:51:24.066Z,99220.03
2022-12-25T18:53:51.330Z,99222.84
2022-12-25T18:56:19.847Z,99221.97
2022-12-25T18:58:47.310Z,99223.44
2022-12-25T19:01:20.745Z,99223.44
2022-12-25T19:03:49.041Z,99210.81
2022-12-25T19:06:22.338Z,99220.16
2022-12-25T19:08:49.378Z,99220.94
2022-12-25T19:11:16.521Z,99217.38
2022-12-25T19:13:43.678Z,99218.84
2022-12-25T19:16:10.699Z,99218.91
2022-12-25T19:18:38.228Z,99221.66
2022-12-25T19:21:07.678Z,99212.25
2022-12-25T19:23:34.746Z,99211.34
2022-12-25T19:26:04.159Z,99214.13
2022-12-25T19:28:30.909Z,99208.25
2022-12-25T19:30:59.897Z,99207.38
2022-12-25T19:33:26.601Z,99211.44
2022-12-25T19:35:53.345Z,99201.31
2022-12-25T19:38:20.243Z,99208.25
2022-12-25T19:41:00.586Z,99206.44
2022-12-25T19:43:33.604Z,99208.13
2022-12-25T19:46:02.143Z,99210.81
2022-12-25T19:48:30.208Z,99205.78
2022-12-25T19:50:57.423Z,99211.72
2022-12-25T19:53:24.837Z,99209.13
2022-12-25T19:55:53.036Z,99205.91
2022-12-25T19:58:20.695Z,99212.66
2022-12-25T20:01:02.391Z,99223.69
2022-12-25T20:03:29.234Z,99218.59
2022-12-25T20:05:56.550Z,99221.13
2022-12-25T20:08:24.485Z,99217.53
2022-12-25T20:10:51.224Z,99214.97
2022-12-25T20:13:17.942Z,99219.25
2022-12-25T20:15:44.763Z,99207.66
2022-12-25T20:18:11.562Z,99218.47
2022-12-25T20:20:38.492Z,99223.66
2022-12-25T20:23:05.592Z,99228.59
2022-12-25T20:25:32.242Z,99232.94
2022-12-25T20:27:58.924Z,99219.41
2022-12-25T20:30:25.829Z,99221.13
2022-12-25T20:32:52.558Z,99220.03
2022-12-25T20:35:19.202Z,99228.22
2022-12-25T20:37:45.947Z,99226.31
2022-12-25T20:40:12.801Z,99227.25
2022-12-25T20:42:39.712Z,99218.75
2022-12-25T20:45:07.628Z,99220.41
2022-12-25T20:47:35.366Z,99223.66
2022-12-25T20:50:02.563Z,99217.72
2022-12-25T20:52:29.255Z,99224.56
2022-12-25T20:54:55.923Z,99225.38
2022-12-25T20:57:22.761Z,99226.31
2022-12-25T20:59:49.747Z,99223.69
2022-12-25T21:02:35.412Z,99233.88
2022-12-25T21:05:07.120Z,99225.22
2022-12-25T21:07:34.195Z,99228.66
2022-12-25T21:10:00.852Z,99229.69
2022-12-25T21:12:27.735Z,99241.72
2022-12-25T21:14:54.368Z,99237.47
2022-12-25T21:17:21.237Z,99236.50
2022-12-25T21:19:48.026Z,99247.53
2022-12-25T21:22:14.758Z,99247.66
2022-12-25T21:24:41.419Z,99245.25
2022-12-25T21:27:08.725Z,99246.63
2022-12-25T21:29:35.415Z,99246.72
2022-12-25T21:32:20.721Z,99243.56
2022-12-25T21:34:47.584Z,99243.56
2022-12-25T21:37:14.274Z,99232.75
2022-12-25T21:39:41.010Z,99248.69
2022-12-25T21:42:07.697Z,99253.53
2022-12-25T21:44:34.573Z,99248.19
2022-12-25T21:47:01.215Z,99254.34
2022-12-25T21:49:46.383Z,99245.19
2022-12-25T21:52:13.197Z,99259.69
2022-12-25T21:54:39.790Z,99256.16
2022-12-25T21:57:07.309Z,99269.63
2022-12-25T21:59:34.194Z,99267.97
2022-12-25T22:02:01.200Z,99259.63
2022-12-25T22:04:27.878Z,99265.44
2022-12-25T22:07:13.669Z,99265.41
2022-12-25T22:09:40.440Z,99273.06
2022-12-25T22:12:32.025Z,99270.63
2022-12-25T22:15:06.499Z,99264.03
2022-12-25T22:17:58.296Z,99259.03
2022-12-25T22:20:30.798Z,99265.81
2022-12-25T22:22:58.458Z,99265.66
2022-12-25T22:25:25.233Z,99262.25
2022-12-25T22:27:52.592Z,99264.84
2022-12-25T22:30:22.200Z,99268.16
2022-12-25T22:32:49.521Z,99267.38
2022-12-25T22:35:16.609Z,99280.25
2022-12-25T22:37:43.997Z,99275.13
2022-12-25T22:40:14.035Z,99266.63
2022-12-25T22:42:41.574Z,99266.47
2022-12-25T22:45:08.956Z,99266.53
2022-12-25T22:47:35.628Z,99273.44
2022-12-25T22:50:02.289Z,99266.38
2022-12-25T22:52:29.030Z,99264.78
2022-12-25T22:54:55.744Z,99265.59
2022-12-25T22:57:22.457Z,99253.84
2022-12-25T22:59:51.997Z,99253.91
2022-12-25T23:02:19.150Z,99261.53
2022-12-25T23:04:46.130Z,99264.13
2022-12-25T23:07:14.703Z,99266.63
2022-12-25T23:09:42.668Z,99265.59
2022-12-25T23:12:30.563Z,99262.31
2022-12-25T23:14:57.533Z,99269.25
2022-12-25T23:17:42.841Z,99275.34
2022-12-25T23:20:29.203Z,99280.47
2022-12-25T23:23:14.428Z,99273.56
2022-12-25T23:26:00.081Z,99272.53
2022-12-25T23:28:45.493Z,99260.50
2022-12-25T23:31:12.233Z,99276.66
2022-12-25T23:33:38.858Z,99268.38
2022-12-25T23:36:05.958Z,99274.06
2022-12-25T23:38:32.605Z,99268.16
2022-12-25T23:40:59.360Z,99282.81
2022-12-25T23:43:26.037Z,99274.38
2022-12-25T23:45:53.038Z,99271.75
2022-12-25T23:48:19.722Z,99265.13
2022-12-25T23:50:46.424Z,99259.06
2022-12-25T23:53:13.026Z,99266.75
2022-12-25T23:55:42.083Z,99263.94
2022-12-25T23:58:09.265Z,99263.94
